This is the latest recevied weather packets stored in our database for station/object IZ1UQG-2. If no packets are shown the sender has not sent any weather packets the latest 10 day(s).
| Time | Temp. | Humidity | Pressure | Rain* | Wind** | Luminosity | Snow |
|---|---|---|---|---|---|---|---|
| 1777962604 | 11.67° C | 89% | 1012.4 hPa | 4.06 mm | - | 18 W/m² | - |
| 1777962184 | 11.67° C | 89% | 1012.4 hPa | 3.81 mm | - | 16 W/m² | - |
| 1777961824 | 11.67° C | 89% | 1012.4 hPa | 3.3 mm | - | 16 W/m² | - |
| 1777961354 | 11.67° C | 89% | 1012.4 hPa | 3.3 mm | - | 12 W/m² | - |
| 1777961284 | 11.67° C | 89% | 1012.4 hPa | 3.05 mm | - | 12 W/m² | - |
| 1777961044 | 11.67° C | 89% | 1012.4 hPa | 3.05 mm | - | 14 W/m² | - |
| 1777960924 | 11.67° C | 89% | 1012.2 hPa | 3.05 mm | - | 14 W/m² | - |
| 1777960752 | 11.67° C | 88% | 1012.3 hPa | 2.79 mm | - | 14 W/m² | - |
| 1777960504 | 11.67° C | 88% | 1012.2 hPa | 2.79 mm | - | 14 W/m² | - |
| 1777960264 | 11.67° C | 88% | 1012.1 hPa | 2.79 mm | - | 14 W/m² | - |
| 1777959904 | 11.67° C | 88% | 1012.1 hPa | 2.54 mm | - | 14 W/m² | - |
| 1777958950 | 11.67° C | 87% | 1012 hPa | 2.03 mm | - | 11 W/m² | - |
| 1777958524 | 11.67° C | 87% | 1012.1 hPa | 1.78 mm | - | 7 W/m² | - |
| 1777958352 | 11.67° C | 86% | 1012 hPa | 1.78 mm | - | 7 W/m² | - |
| 1777958164 | 11.67° C | 86% | 1012.1 hPa | 1.78 mm | - | 7 W/m² | - |
| 1777957984 | 11.67° C | 86% | 1012.1 hPa | 1.78 mm | - | 7 W/m² | - |
| 1777957264 | 12.22° C | 85% | 1011.9 hPa | 1.27 mm | - | 5 W/m² | - |
| 1777956364 | 12.22° C | 84% | 1011.8 hPa | 0.76 mm | - | 0 W/m² | - |
| 1777955823 | 12.22° C | 83% | 1011.8 hPa | 0.76 mm | - | 0 W/m² | - |
| 1777955530 | 12.22° C | 82% | 1011.8 hPa | 0.51 mm | - | 0 W/m² | - |
| 1777955224 | 12.22° C | 82% | 1011.6 hPa | 0.51 mm | - | 0 W/m² | - |
| 1777954144 | 12.78° C | 80% | 1011.5 hPa | 0.51 mm | - | 0 W/m² | - |
| 1777953843 | 12.78° C | 80% | 1011.5 hPa | 0.51 mm | - | 0 W/m² | - |
| 1777953784 | 12.78° C | 80% | 1011.6 hPa | 0.51 mm | - | 0 W/m² | - |
| 1777953732 | 12.78° C | 80% | 1011.5 hPa | 0.51 mm | - | 0 W/m² | - |
* Rain latest hour (hover to see other rain measurements)
** Current wind speed in m/s (hover to see current wind gust speed)